Text Box: All records at near 07:00 local time
Kleivo 1 weather for Sep 2007
Month no. 10
Obs.
Da.
Temp. Dew Point Precip. Wind
Speed
Wind gusts Cloud cover Press. Humidity Wind dir. Sunny OPT
01.09.2007 10,3   0,0 10,0   5 1012,9 39,0 135,0   72,5 %
02.09.2007 12,9   56,0 19,0   10 1005,4 38,0 292,5 1 55,0 %
03.09.2007 8,1   8,7 11,0   10 1009,8 39,0 67,5 1 75,0 %
04.09.2007 8,9   8,3 8,0   10 1024,4 38,0 45,0 1 77,5 %
05.09.2007 9,8   4,2 21,0   10 1024,0 40,0 180,0 1 72,5 %
06.09.2007 12,3   1,3 9,0   10 1028,8 38,0 337,5 1 85,0 %
07.09.2007 13,5   9,5 24,0   4 1028,1 40,0 292,5 1 55,0 %
08.09.2007 12,8   18,5 21,0   10 1021,3 39,0 337,5 1 65,0 %
09.09.2007 10,8   3,0 11,0   10 1022,0 39,0 22,5 1 80,0 %
10.09.2007 8,8   15,6 0,0   10 999,7 96,0 270,0 1 75,0 %
11.09.2007 8,1   1,1 0,0   10 1016,3 95,0 180,0 1 87,5 %
12.09.2007 10,8   0,8 2,0   10 1021,7 39,0 22,5 1 90,0 %
13.09.2007 9,4   0,8 6,0   10 1028,1 38,0 135,0 1 85,0 %
14.09.2007 11,2   0,8 17,0   10 1003,4 40,0 292,5 1 80,0 %
15.09.2007 8,9   0,8 33,0   10 1017,9 36,0 0,0 1 65,0 %
16.09.2007 11,2   0,8 24,0   0 1002,4 40,0 180,0   50,0 %
17.09.2007 8,4   0,8 12,0   10 1002,7 39,0 0,0 1 80,0 %
18.09.2007 6,6   0,8 19,0   10 1013,9 38,0 0,0 1 72,5 %
19.09.2007 6,9   0,8 13,0   10 1013,9 38,0 22,5 1 77,5 %
20.09.2007 6,9   5,2 13,0   10 1013,9 38,0 22,5 1 75,0 %
21.09.2007 6,9   30,4 13,0   10 1013,9 38,0 22,5 1 52,5 %
22.09.2007 10,3   12,1 5,0   10 1009,8 39,0 270,0 1 77,5 %
23.09.2007 8,5   6,5 35,0   0 1011,2 82,0 180,0   35,0 %
24.09.2007 12,0   34,1 23,0   0 1002,7 85,0 180,0   25,0 %
25.09.2007 6,1   27,0 24,0   4 998,6 93,0 225,0 1 32,5 %
26.09.2007 7,5   16,8 2,0   3 1011,2 98,0 157,5 1 57,5 %
27.09.2007 3,9   0,0 0,0   10 1023,4 98,0 180,0 1 82,5 %
28.09.2007 3,6   0,0 2,0   10 1027,4 98,0 270,0 1 82,5 %
29.09.2007 4,9   0,0 2,0   10 1019,3 66,0 22,5 1 82,5 %
30.09.2007 8,5   1,2 0,0   10 1012,2 97,0 202,5 1 87,5 %
                       
Avrg/Sum 9,0   265,9 12,6   8,2 1014,7 56,0 151,5 26 69,7 %